createdAt,value
2022-09-03T00:00:28.663Z,100.00
2022-09-03T00:03:02.307Z,100.00
2022-09-03T00:05:37.532Z,100.00
2022-09-03T00:08:10.843Z,100.00
2022-09-03T00:10:52.323Z,100.00
2022-09-03T00:13:24.907Z,100.00
2022-09-03T00:15:54.891Z,100.00
2022-09-03T00:18:23.737Z,100.00
2022-09-03T00:20:58.816Z,100.00
2022-09-03T00:23:28.084Z,100.00
2022-09-03T00:25:57.926Z,100.00
2022-09-03T00:28:29.989Z,100.00
2022-09-03T00:31:06.945Z,100.00
2022-09-03T00:33:34.477Z,100.00
2022-09-03T00:36:17.212Z,100.00
2022-09-03T00:38:45.150Z,100.00
2022-09-03T00:41:31.606Z,100.00
2022-09-03T00:44:13.964Z,100.00
2022-09-03T00:46:44.117Z,100.00
2022-09-03T00:49:27.620Z,100.00
2022-09-03T00:52:00.854Z,100.00
2022-09-03T00:54:49.820Z,100.00
2022-09-03T00:57:26.437Z,100.00
2022-09-03T01:00:01.805Z,100.00
2022-09-03T01:02:48.153Z,100.00
2022-09-03T01:05:27.460Z,100.00
2022-09-03T01:08:03.911Z,100.00
2022-09-03T01:10:39.789Z,100.00
2022-09-03T01:13:14.713Z,100.00
2022-09-03T01:15:57.086Z,100.00
2022-09-03T01:18:30.996Z,100.00
2022-09-03T01:21:10.090Z,100.00
2022-09-03T01:23:44.204Z,100.00
2022-09-03T01:26:29.837Z,100.00
2022-09-03T01:28:56.912Z,100.00
2022-09-03T01:31:26.932Z,100.00
2022-09-03T01:34:06.134Z,100.00
2022-09-03T01:36:39.289Z,100.00
2022-09-03T01:39:08.438Z,100.00
2022-09-03T01:42:03.521Z,100.00
2022-09-03T01:44:40.423Z,100.00
2022-09-03T01:47:35.103Z,100.00
2022-09-03T01:50:05.119Z,100.00
2022-09-03T01:52:32.082Z,100.00
2022-09-03T01:55:21.321Z,100.00
2022-09-03T01:57:56.237Z,100.00
2022-09-03T02:00:24.199Z,100.00
2022-09-03T02:02:51.865Z,100.00
2022-09-03T02:05:24.306Z,100.00
2022-09-03T02:07:55.028Z,100.00
2022-09-03T02:10:25.521Z,100.00
2022-09-03T02:12:54.559Z,100.00
2022-09-03T02:15:22.486Z,100.00
2022-09-03T02:17:51.594Z,100.00
2022-09-03T02:20:23.183Z,100.00
2022-09-03T02:22:51.128Z,100.00
2022-09-03T02:25:18.343Z,100.00
2022-09-03T02:27:45.936Z,100.00
2022-09-03T02:30:13.062Z,100.00
2022-09-03T02:32:40.137Z,100.00
2022-09-03T02:35:07.427Z,100.00
2022-09-03T02:37:35.149Z,100.00
2022-09-03T02:40:05.845Z,100.00
2022-09-03T02:42:33.111Z,100.00
2022-09-03T02:45:18.869Z,100.00
2022-09-03T02:47:48.027Z,100.00
2022-09-03T02:50:16.290Z,100.00
2022-09-03T02:52:43.297Z,100.00
2022-09-03T02:55:10.202Z,100.00
2022-09-03T02:57:37.510Z,100.00
2022-09-03T03:00:05.492Z,100.00
2022-09-03T03:02:32.609Z,100.00
2022-09-03T03:04:59.615Z,100.00
2022-09-03T03:07:27.968Z,100.00
2022-09-03T03:09:54.898Z,100.00
2022-09-03T03:12:22.254Z,100.00
2022-09-03T03:14:49.233Z,100.00
2022-09-03T03:17:16.230Z,100.00
2022-09-03T03:19:43.131Z,100.00
2022-09-03T03:22:10.334Z,95.30
2022-09-03T03:24:38.204Z,87.91
2022-09-03T03:27:07.376Z,83.44
2022-09-03T03:29:34.537Z,79.76
2022-09-03T03:32:01.542Z,76.30
2022-09-03T03:34:28.574Z,72.54
2022-09-03T03:36:56.674Z,72.24
2022-09-03T03:39:23.606Z,74.10
2022-09-03T03:41:52.602Z,77.28
2022-09-03T03:44:20.408Z,78.72
2022-09-03T03:46:47.419Z,80.25
2022-09-03T03:49:14.436Z,78.33
2022-09-03T03:51:41.518Z,72.17
2022-09-03T03:54:08.422Z,63.36
2022-09-03T03:56:35.599Z,53.99
2022-09-03T03:59:02.996Z,46.78
2022-09-03T04:01:30.503Z,41.41
2022-09-03T04:03:59.042Z,37.67
2022-09-03T04:06:26.794Z,34.89
2022-09-03T04:08:53.853Z,31.74
2022-09-03T04:11:22.217Z,30.46
2022-09-03T04:13:49.888Z,32.15
2022-09-03T04:16:18.677Z,36.70
2022-09-03T04:18:46.123Z,39.20
2022-09-03T04:21:23.580Z,42.92
2022-09-03T04:23:51.577Z,47.74
2022-09-03T04:26:20.618Z,48.82
2022-09-03T04:28:48.505Z,53.39
2022-09-03T04:31:16.441Z,56.35
2022-09-03T04:33:43.872Z,58.78
2022-09-03T04:36:15.223Z,61.20
2022-09-03T04:38:42.986Z,62.68
2022-09-03T04:41:11.525Z,63.86
2022-09-03T04:43:39.079Z,65.68
2022-09-03T04:46:06.852Z,67.08
2022-09-03T04:48:35.081Z,68.10
2022-09-03T04:51:09.108Z,62.52
2022-09-03T04:53:40.320Z,47.77
2022-09-03T04:56:21.000Z,37.56
2022-09-03T04:58:49.198Z,30.30
2022-09-03T05:01:19.703Z,26.27
2022-09-03T05:03:47.169Z,23.94
2022-09-03T05:06:17.337Z,21.99
2022-09-03T05:08:48.356Z,21.03
2022-09-03T05:11:16.370Z,18.69
2022-09-03T05:13:44.095Z,18.02
2022-09-03T05:16:11.777Z,17.36
2022-09-03T05:18:40.045Z,16.86
2022-09-03T05:21:09.137Z,16.45
2022-09-03T05:23:37.924Z,15.70
2022-09-03T05:26:10.989Z,15.15
2022-09-03T05:28:39.526Z,14.97
2022-09-03T05:31:06.518Z,14.83
2022-09-03T05:33:34.953Z,15.62
2022-09-03T05:36:06.167Z,14.08
2022-09-03T05:38:33.556Z,13.49
2022-09-03T05:41:04.870Z,14.13
2022-09-03T05:43:32.648Z,13.88
2022-09-03T05:46:04.525Z,12.73
2022-09-03T05:48:32.261Z,12.54
2022-09-03T05:51:01.157Z,12.05
2022-09-03T05:53:28.857Z,12.74
2022-09-03T05:55:57.509Z,11.95
2022-09-03T05:58:25.539Z,12.03
2022-09-03T06:00:52.603Z,12.14
2022-09-03T06:03:20.072Z,13.33
2022-09-03T06:05:54.818Z,13.17
2022-09-03T06:08:22.350Z,13.72
2022-09-03T06:10:49.238Z,15.44
2022-09-03T06:13:16.291Z,15.05
2022-09-03T06:15:43.223Z,14.67
2022-09-03T06:18:10.183Z,15.08
2022-09-03T06:20:37.493Z,15.10
2022-09-03T06:23:04.664Z,15.38
2022-09-03T06:25:32.259Z,15.89
2022-09-03T06:27:59.395Z,16.44
2022-09-03T06:30:27.456Z,16.72
2022-09-03T06:32:54.429Z,16.94
2022-09-03T06:35:21.518Z,17.62
2022-09-03T06:37:49.090Z,18.62
2022-09-03T06:40:22.627Z,20.11
2022-09-03T06:42:59.481Z,22.35
2022-09-03T06:45:26.567Z,24.75
2022-09-03T06:47:54.199Z,27.12
2022-09-03T06:50:21.536Z,29.33
2022-09-03T06:52:57.384Z,30.83
2022-09-03T06:55:24.420Z,33.37
2022-09-03T06:57:56.417Z,35.50
2022-09-03T07:00:24.394Z,36.65
2022-09-03T07:02:58.708Z,38.19
2022-09-03T07:05:28.913Z,39.58
2022-09-03T07:07:55.791Z,41.52
2022-09-03T07:10:22.893Z,42.03
2022-09-03T07:12:50.306Z,44.06
2022-09-03T07:15:17.518Z,44.03
2022-09-03T07:17:44.898Z,44.49
2022-09-03T07:20:11.792Z,45.15
2022-09-03T07:22:38.814Z,45.59
2022-09-03T07:25:05.991Z,45.10
2022-09-03T07:27:35.387Z,44.93
2022-09-03T07:30:03.658Z,45.63
2022-09-03T07:32:30.974Z,45.68
2022-09-03T07:34:59.000Z,45.46
2022-09-03T07:37:26.547Z,47.08
2022-09-03T07:39:54.330Z,47.04
2022-09-03T07:42:21.440Z,48.74
2022-09-03T07:44:48.347Z,47.60
2022-09-03T07:47:19.919Z,47.98
2022-09-03T07:49:53.948Z,47.66
2022-09-03T07:52:23.794Z,46.83
2022-09-03T07:54:56.934Z,46.62
2022-09-03T07:57:23.955Z,46.32
2022-09-03T07:59:51.405Z,46.66
2022-09-03T08:02:18.407Z,46.20
2022-09-03T08:04:45.670Z,45.77
2022-09-03T08:07:12.614Z,45.12
2022-09-03T08:09:39.666Z,45.04
2022-09-03T08:12:06.742Z,43.70
2022-09-03T08:14:33.729Z,42.90
2022-09-03T08:17:00.682Z,42.84
2022-09-03T08:19:27.545Z,43.67
2022-09-03T08:21:54.433Z,44.41
2022-09-03T08:24:22.242Z,44.90
2022-09-03T08:26:52.056Z,45.16
2022-09-03T08:29:20.363Z,44.78
2022-09-03T08:31:47.424Z,44.43
2022-09-03T08:34:14.966Z,44.49
2022-09-03T08:36:42.145Z,43.86
2022-09-03T08:39:10.507Z,43.62
2022-09-03T08:41:37.802Z,42.82
2022-09-03T08:44:05.951Z,42.37
2022-09-03T08:46:55.824Z,42.14
2022-09-03T08:49:43.011Z,42.22
2022-09-03T08:52:19.120Z,42.12
2022-09-03T08:54:49.627Z,42.09
2022-09-03T08:57:17.638Z,41.86
2022-09-03T08:59:55.297Z,41.16
2022-09-03T09:02:47.891Z,41.11
2022-09-03T09:05:19.487Z,40.63
2022-09-03T09:07:49.430Z,40.63
2022-09-03T09:10:24.418Z,40.71
2022-09-03T09:13:10.505Z,40.42
2022-09-03T09:16:13.483Z,40.02
2022-09-03T09:18:46.501Z,40.10
2022-09-03T09:21:27.395Z,39.30
2022-09-03T09:23:59.901Z,39.52
2022-09-03T09:26:26.830Z,39.67
2022-09-03T09:29:00.864Z,39.90
2022-09-03T09:31:33.443Z,40.03
2022-09-03T09:34:09.463Z,40.06
2022-09-03T09:36:42.433Z,40.44
2022-09-03T09:39:11.249Z,41.07
2022-09-03T09:41:42.168Z,41.42
2022-09-03T09:44:09.315Z,41.65
2022-09-03T09:46:39.451Z,40.76
2022-09-03T09:49:46.217Z,40.21
2022-09-03T09:52:14.862Z,40.20
2022-09-03T09:54:42.772Z,40.74
2022-09-03T09:57:20.602Z,40.97
2022-09-03T09:59:49.813Z,41.42
2022-09-03T10:02:27.556Z,41.06
2022-09-03T10:05:02.057Z,40.77
2022-09-03T10:07:32.278Z,40.68
2022-09-03T10:10:02.517Z,40.02
2022-09-03T10:12:35.646Z,39.75
2022-09-03T10:15:05.762Z,40.04
2022-09-03T10:17:37.368Z,39.37
2022-09-03T10:20:27.782Z,38.80
2022-09-03T10:22:57.653Z,38.85
2022-09-03T10:25:27.177Z,37.92
2022-09-03T10:27:55.332Z,37.15
2022-09-03T10:30:24.121Z,35.71
2022-09-03T10:33:17.375Z,35.64
2022-09-03T10:35:47.194Z,35.28
2022-09-03T10:38:14.112Z,35.39
2022-09-03T10:41:10.554Z,35.92
2022-09-03T10:43:55.888Z,35.79
2022-09-03T10:46:26.879Z,36.10
2022-09-03T10:49:13.608Z,35.38
2022-09-03T10:51:50.541Z,36.00
2022-09-03T10:54:29.590Z,36.17
2022-09-03T10:57:15.488Z,36.32
2022-09-03T10:59:48.537Z,36.12
2022-09-03T11:02:15.570Z,36.76
2022-09-03T11:04:55.141Z,36.76
2022-09-03T11:07:24.315Z,36.87
2022-09-03T11:09:51.137Z,36.70
2022-09-03T11:12:25.535Z,36.93
2022-09-03T11:15:05.525Z,37.62
2022-09-03T11:17:44.049Z,37.46
2022-09-03T11:20:20.704Z,37.25
2022-09-03T11:22:49.252Z,37.11
2022-09-03T11:25:18.310Z,37.11
2022-09-03T11:27:56.739Z,37.04
2022-09-03T11:30:25.475Z,36.78
2022-09-03T11:32:55.727Z,36.32
2022-09-03T11:35:37.690Z,36.49
2022-09-03T11:38:06.541Z,36.66
2022-09-03T11:41:00.499Z,37.55
2022-09-03T11:43:29.744Z,37.97
2022-09-03T11:46:05.836Z,37.65
2022-09-03T11:48:41.090Z,37.89
2022-09-03T11:51:32.258Z,37.17
2022-09-03T11:54:03.904Z,36.28
2022-09-03T11:56:33.778Z,35.16
2022-09-03T11:59:03.184Z,34.79
2022-09-03T12:01:32.032Z,35.42
2022-09-03T12:04:04.892Z,34.84
2022-09-03T12:06:52.012Z,35.78
2022-09-03T12:09:22.340Z,37.09
2022-09-03T12:12:24.053Z,37.26
2022-09-03T12:15:11.756Z,38.04
2022-09-03T12:17:50.096Z,38.84
2022-09-03T12:20:23.711Z,39.21
2022-09-03T12:22:51.112Z,39.82
2022-09-03T12:25:18.044Z,40.29
2022-09-03T12:27:46.718Z,40.72
2022-09-03T12:30:18.313Z,41.28
2022-09-03T12:32:47.686Z,41.39
2022-09-03T12:38:09.305Z,41.48
2022-09-03T12:43:39.369Z,41.05
2022-09-03T12:46:14.152Z,41.16
2022-09-03T12:48:47.377Z,41.54
2022-09-03T12:54:03.631Z,40.87
2022-09-03T12:56:32.651Z,40.73
2022-09-03T12:59:05.056Z,40.62
2022-09-03T13:01:40.727Z,39.87
2022-09-03T13:04:14.654Z,40.02
2022-09-03T13:07:17.083Z,39.99
2022-09-03T13:09:46.727Z,40.02
2022-09-03T13:12:33.354Z,40.18
2022-09-03T13:15:09.280Z,39.83
2022-09-03T13:17:53.879Z,40.01
2022-09-03T13:20:34.140Z,40.58
2022-09-03T13:23:27.244Z,40.46
2022-09-03T13:25:54.322Z,40.73
2022-09-03T13:28:33.602Z,40.63
2022-09-03T13:31:10.838Z,40.74
2022-09-03T13:33:41.299Z,41.18
2022-09-03T13:36:11.314Z,41.43
2022-09-03T13:38:44.479Z,41.62
2022-09-03T13:41:22.942Z,41.38
2022-09-03T13:44:07.954Z,41.34
2022-09-03T13:46:48.077Z,41.42
2022-09-03T13:49:36.735Z,41.49
2022-09-03T13:52:07.932Z,41.74
2022-09-03T13:54:48.594Z,42.05
2022-09-03T13:57:22.487Z,42.60
2022-09-03T13:59:59.397Z,42.79
2022-09-03T14:02:32.567Z,42.91
2022-09-03T14:05:20.201Z,43.27
2022-09-03T14:07:52.639Z,43.62
2022-09-03T14:10:22.441Z,43.77
2022-09-03T14:12:55.833Z,44.16
2022-09-03T14:15:29.593Z,44.60
2022-09-03T14:18:02.937Z,44.24
2022-09-03T14:20:29.995Z,44.65
2022-09-03T14:23:03.325Z,44.69
2022-09-03T14:25:30.223Z,44.69
2022-09-03T14:28:22.823Z,44.82
2022-09-03T14:30:55.943Z,44.83
2022-09-03T14:33:29.326Z,45.11
2022-09-03T14:36:00.814Z,45.77
2022-09-03T14:38:36.845Z,45.13
2022-09-03T14:41:29.128Z,44.93
2022-09-03T14:44:14.604Z,45.39
2022-09-03T14:46:47.735Z,45.87
2022-09-03T14:49:27.422Z,47.13
2022-09-03T14:52:13.079Z,46.35
2022-09-03T14:55:05.572Z,46.38
2022-09-03T14:57:51.036Z,46.69
2022-09-03T15:00:22.125Z,46.51
2022-09-03T15:03:04.403Z,46.85
2022-09-03T15:05:37.774Z,47.72
2022-09-03T15:08:33.849Z,47.65
2022-09-03T15:11:02.537Z,49.45
2022-09-03T15:13:32.661Z,52.96
2022-09-03T15:16:01.453Z,52.63
2022-09-03T15:18:38.207Z,53.05
2022-09-03T15:21:28.196Z,54.21
2022-09-03T15:24:01.734Z,55.46
2022-09-03T15:26:47.188Z,55.14
2022-09-03T15:29:27.265Z,55.69
2022-09-03T15:32:00.136Z,57.43
2022-09-03T15:34:43.720Z,55.14
2022-09-03T15:37:13.673Z,54.72
2022-09-03T15:39:44.342Z,56.42
2022-09-03T15:42:18.532Z,58.38
2022-09-03T15:44:50.850Z,58.46
2022-09-03T15:47:35.279Z,59.70
2022-09-03T15:50:33.536Z,61.41
2022-09-03T15:53:00.578Z,63.37
2022-09-03T15:55:37.237Z,65.65
2022-09-03T15:58:24.459Z,66.71
2022-09-03T16:00:54.759Z,68.71
2022-09-03T16:03:46.976Z,70.67
2022-09-03T16:06:25.472Z,71.63
2022-09-03T16:08:52.407Z,73.63
2022-09-03T16:11:30.724Z,73.31
2022-09-03T16:14:22.029Z,75.35
2022-09-03T16:16:52.480Z,74.39
2022-09-03T16:19:28.678Z,75.37
2022-09-03T16:21:55.778Z,76.25
2022-09-03T16:24:26.398Z,76.06
2022-09-03T16:27:16.352Z,77.33
2022-09-03T16:29:54.253Z,76.98
2022-09-03T16:32:33.306Z,77.66
2022-09-03T16:35:26.656Z,78.13
2022-09-03T16:38:08.931Z,78.22
2022-09-03T16:40:54.771Z,78.38
2022-09-03T16:43:40.666Z,78.47
2022-09-03T16:46:17.687Z,80.72
2022-09-03T16:48:59.274Z,79.59
2022-09-03T16:51:43.577Z,79.79
2022-09-03T16:54:29.343Z,79.99
2022-09-03T16:57:08.288Z,80.00
2022-09-03T16:59:41.361Z,80.58
2022-09-03T17:02:39.403Z,79.78
2022-09-03T17:05:04.123Z,79.83
2022-09-03T17:07:43.553Z,79.36
2022-09-03T17:10:18.102Z,79.38
2022-09-03T17:13:05.426Z,80.41
2022-09-03T17:15:41.562Z,79.95
2022-09-03T17:18:09.003Z,80.70
2022-09-03T17:20:35.909Z,80.16
2022-09-03T17:23:06.287Z,79.86
2022-09-03T17:25:37.198Z,79.56
2022-09-03T17:28:39.659Z,79.44
2022-09-03T17:31:16.173Z,79.14
2022-09-03T17:33:45.860Z,78.54
2022-09-03T17:36:15.604Z,77.43
2022-09-03T17:38:48.057Z,77.43
2022-09-03T17:41:28.273Z,77.09
2022-09-03T17:44:16.781Z,77.00
2022-09-03T17:46:54.581Z,76.80
2022-09-03T17:49:26.518Z,76.58
2022-09-03T17:52:07.332Z,78.57
2022-09-03T17:54:43.145Z,80.00
2022-09-03T17:57:13.369Z,78.81
2022-09-03T17:59:56.406Z,77.92
2022-09-03T18:02:33.194Z,77.83
2022-09-03T18:05:00.676Z,77.12
2022-09-03T18:07:30.366Z,76.32
2022-09-03T18:10:06.849Z,76.43
2022-09-03T18:12:59.770Z,77.09
2022-09-03T18:16:01.003Z,77.82
2022-09-03T18:18:29.464Z,77.69
2022-09-03T18:21:25.193Z,77.91
2022-09-03T18:24:30.774Z,78.58
2022-09-03T18:27:18.467Z,79.28
2022-09-03T18:30:07.531Z,79.68
2022-09-03T18:32:53.170Z,80.52
2022-09-03T18:35:38.757Z,81.23
2022-09-03T18:38:24.260Z,81.28
2022-09-03T18:41:28.492Z,82.37
2022-09-03T18:44:40.431Z,83.04
2022-09-03T18:50:54.844Z,84.30
2022-09-03T18:53:53.761Z,85.26
2022-09-03T18:56:58.155Z,85.56
2022-09-03T18:59:46.859Z,85.94
2022-09-03T19:02:44.663Z,86.67
2022-09-03T19:05:30.624Z,86.51
2022-09-03T19:08:21.635Z,86.11
2022-09-03T19:11:21.963Z,85.89
2022-09-03T19:14:07.552Z,85.70
2022-09-03T19:17:02.955Z,85.75
2022-09-03T19:20:07.469Z,86.89
2022-09-03T19:23:00.181Z,86.90
2022-09-03T19:25:47.143Z,85.72
2022-09-03T19:28:45.135Z,85.60
2022-09-03T19:31:36.903Z,85.68
2022-09-03T19:34:36.116Z,85.70
2022-09-03T19:38:00.288Z,85.02
2022-09-03T19:40:48.936Z,85.23
2022-09-03T19:43:46.640Z,86.13
2022-09-03T19:46:52.588Z,85.09
2022-09-03T19:49:51.524Z,84.98
2022-09-03T19:52:46.432Z,84.84
2022-09-03T19:55:35.281Z,84.16
2022-09-03T19:58:42.007Z,84.37
2022-09-03T20:01:27.473Z,84.29
2022-09-03T20:04:15.303Z,84.07
2022-09-03T20:07:01.142Z,83.34
2022-09-03T20:09:48.190Z,82.89
2022-09-03T20:12:17.649Z,82.38
2022-09-03T20:14:44.537Z,82.22
2022-09-03T20:17:14.326Z,81.51
2022-09-03T20:19:54.608Z,81.49
2022-09-03T20:22:33.771Z,81.32
2022-09-03T20:25:26.888Z,81.20
2022-09-03T20:28:02.932Z,80.69
2022-09-03T20:30:43.447Z,80.09
2022-09-03T20:33:11.087Z,79.95
2022-09-03T20:35:41.184Z,80.15
2022-09-03T20:38:23.693Z,80.36
2022-09-03T20:41:00.119Z,80.74
2022-09-03T20:43:30.088Z,81.24
2022-09-03T20:46:15.941Z,81.85
2022-09-03T20:49:03.983Z,82.51
2022-09-03T20:51:46.225Z,82.95
2022-09-03T20:54:31.790Z,83.27
2022-09-03T20:57:01.829Z,83.26
2022-09-03T20:59:48.570Z,83.31
2022-09-03T21:02:18.803Z,83.46
2022-09-03T21:04:52.005Z,84.08
2022-09-03T21:07:40.078Z,84.22
2022-09-03T21:10:22.549Z,83.96
2022-09-03T21:12:59.800Z,83.80
2022-09-03T21:15:32.726Z,84.03
2022-09-03T21:18:24.280Z,84.25
2022-09-03T21:21:14.527Z,84.64
2022-09-03T21:23:44.282Z,83.98
2022-09-03T21:26:15.326Z,84.97
2022-09-03T21:28:45.901Z,84.88
2022-09-03T21:31:19.890Z,85.44
2022-09-03T21:33:50.175Z,85.70
2022-09-03T21:36:26.068Z,84.85
2022-09-03T21:38:56.667Z,84.37
2022-09-03T21:41:34.860Z,84.79
2022-09-03T21:44:06.539Z,84.41
2022-09-03T21:46:59.832Z,84.64
2022-09-03T21:49:31.187Z,83.99
2022-09-03T21:52:01.425Z,84.07
2022-09-03T21:54:30.189Z,84.28
2022-09-03T21:57:13.305Z,84.12
2022-09-03T21:59:52.334Z,84.51
2022-09-03T22:02:24.542Z,84.76
2022-09-03T22:04:52.129Z,83.91
2022-09-03T22:07:22.240Z,84.57
2022-09-03T22:09:58.925Z,84.40
2022-09-03T22:12:25.821Z,85.07
2022-09-03T22:14:54.120Z,85.85
2022-09-03T22:17:43.995Z,85.47
2022-09-03T22:20:14.653Z,86.93
2022-09-03T22:22:44.123Z,87.19
2022-09-03T22:25:11.227Z,86.98
2022-09-03T22:27:38.162Z,87.74
2022-09-03T22:30:11.463Z,88.26
2022-09-03T22:33:00.319Z,87.99
2022-09-03T22:35:42.608Z,88.20
2022-09-03T22:38:12.912Z,90.38
2022-09-03T22:40:49.103Z,90.42
2022-09-03T22:43:35.453Z,91.75
2022-09-03T22:46:05.525Z,92.50
2022-09-03T22:48:32.520Z,92.35
2022-09-03T22:51:00.627Z,92.49
2022-09-03T22:53:39.425Z,92.22
2022-09-03T22:56:06.775Z,93.42
2022-09-03T22:58:39.903Z,93.70
2022-09-03T23:01:12.934Z,93.54
2022-09-03T23:03:54.107Z,93.67
2022-09-03T23:06:25.620Z,94.36
2022-09-03T23:08:57.165Z,94.43
2022-09-03T23:11:43.974Z,95.09
2022-09-03T23:14:18.779Z,95.51
2022-09-03T23:16:54.967Z,96.08
2022-09-03T23:19:41.102Z,96.52
2022-09-03T23:22:12.512Z,96.14
2022-09-03T23:24:45.227Z,97.91
2022-09-03T23:27:18.111Z,97.41
2022-09-03T23:29:48.487Z,97.29
2022-09-03T23:32:15.499Z,98.81
2022-09-03T23:34:42.369Z,98.52
2022-09-03T23:37:33.867Z,97.98
2022-09-03T23:40:01.861Z,98.32
2022-09-03T23:42:42.504Z,98.35
2022-09-03T23:45:15.603Z,100.00
2022-09-03T23:47:47.719Z,100.00
2022-09-03T23:50:14.552Z,99.60
2022-09-03T23:52:52.589Z,100.00
2022-09-03T23:55:40.390Z,100.00
2022-09-03T23:58:15.879Z,99.95
